FCA weather

Glacier Park International Airport
Kalispell, Montana, United States

Public forecast

Using degrees Fahrenheit for public forecast. Weather courtesy of forecast.io.

METAR (pilot weather report)

Retrieved 2019/06/16 00:05 UTC (52 minutes ago):

KGPI 160005Z 19010KT 10SM FEW120 24/09 A2994

TAF (pilot weather forecast)

Forecast is more than 12 hours old.

Retrieved 2019/06/15 00:24 UTC (1 day ago):

TAF KGPI 152321Z 1600/1624 01007KT P6SM VCSH BKN100 FM161200 02004KT P6SM SCT100 FM162000 01008KT P6SM VCSH SCT070 BKN100